(°C)
(°C)
-5°
-5°
-6°
-6°
-6°
-7°
-7°
ZJZ
ZJZ
ZJZ
ZJZ
ZJZ
ZJZ
ZJZ
(km/h)
15-25
16-30
16-29
18-31
20-32
21-34
21-34
(mm)
0
0
0
0
0
0
0
(%)
0
0
0
0
0
0
0

Sluneční výška

/ -54.8°
sun-icon
UV 0
08:10
16:13
Ubývající srpek (348°)
06:54
15:30

METAR pro Bordenau (ETNW)

Čas Podmínky Teplota/
Rosný bod
Vítr Viditelnost Počasí Oblaky Tlak Změna Nezpracované
VFR 0°C / -2°C 270º 13kt 9000m - Few Clouds 300ft 1007 - ETNW 030020Z 27013KT 9000 FEW003 M00/M02 Q1007 BLU+
MVFR -1°C / -2°C 280º 7kt 7000m - Scattered Clouds 300ft 1007 - ETNW 022320Z 28007KT 7000 SCT003 M01/M02 Q1007 WHT
LIFR -1°C / -1°C 280º 9kt 6000m - Broken Clouds 300ft 1007 - ETNW 022250Z 28009KT 6000 BKN003 M01/M01 Q1007 YLO
LIFR -1°C / -2°C 280º 7kt 6000m - Broken Clouds 200ft 1007 - ETNW 022220Z 28007KT 6000 BKN002 M01/M02 Q1007 AMB
LIFR -1°C / -1°C 290º 8kt 7000m - Broken Clouds 200ft 1007 - ETNW 022140Z 29008KT 7000 BKN002 M01/M01 Q1007 AMB
VFR -1°C / -2°C 300º 8kt 9000m - Few Clouds 200ft 1007 - ETNW 022120Z 30008KT 9000 FEW002 M01/M02 Q1007 BLU+
VFR -1°C / -1°C 280º 7kt 9000m - Few Clouds 200ft 1006 - ETNW 022035Z 28007KT 9000 FEW002 M01/M01 Q1006 BLU+FCST CNL
VFR -1°C / -1°C 270º 8kt 9000m - Few Clouds 200ft 1006 - ETNW 022020Z 27008KT 9000 FEW002 M01/M01 Q1006 BLU+BLU+
VFR -1°C / -2°C 270º 6kt >10km - Few Clouds 11000ft 1006 - ETNW 021920Z 27006KT 9999 FEW110 M01/M02 Q1006 BLU+BLU+
VFR 0°C / -2°C 310º 8kt >10km - Few Clouds 11000ft 1005 - ETNW 021820Z 31008KT 9999 FEW110 M00/M02 Q1005 BLU+BLU+
VFR 0°C / -3°C 320º 7kt >10km - Few Clouds 10000ft 1004 - ETNW 021720Z 32007KT 9999 FEW100 M00/M03 Q1004 BLU+BLU+
VFR 1°C / -3°C 350º 6kt >10km - Few Clouds 1700ft 1003 - ETNW 021620Z 35006KT 9999 FEW017 01/M03 Q1003 BLU+BLU+
VFR 2°C / -3°C 350º 7kt >10km - Few Clouds 1600ft
Broken Clouds 5500ft
1002 - ETNW 021520Z 35007KT 9999 FEW016 BKN055 02/M03 Q1002 BLU BLU
VFR 2°C / -2°C 340º 7kt >10km - Few Clouds 1300ft
Broken Clouds 5000ft
1001 - ETNW 021420Z 34007KT 9999 FEW013 BKN050 02/M02 Q1001 BLU BLU
VFR 4°C / 1°C 340º 10kt >10km in the Vicinity Showers Vertical Visibility of 0ft.
Broken Clouds 4000ft
1000 - ETNW 021320Z 34010KT 9999 VCSH FEW010 BKN040 04/01 Q1000 BLU BLU
VFR 4°C / 0°C 340º 8kt >10km Light Showers Snow Light Showers Rain 3.00mm precipitation Vertical Visibility of 0ft.
Broken Clouds 6000ft
999 - ETNW 021220Z 34008KT 9999 -SHSNRA SCT010CB BKN060 04/00 Q0999 BLU BLU
VFR 4°C / 1°C 310º 8kt >10km - Few Clouds 1000ft
Scattered Clouds 2100ft
Broken Clouds 6000ft
999 Temporary: YLO ETNW 021120Z 31008KT 9999 FEW010 SCT021 BKN060 04/01 Q0999 BLU BLU TEMPO YLO
MVFR 3°C / 1°C 320º 7kt >10km - Few Clouds 900ft
Broken Clouds 2100ft
999 Temporary: YLO ETNW 021045Z 32007KT 9999 FEW009 BKN021 03/01 Q0999 WHT BLU TEMPO YLO
MVFR 3°C / 0°C 330º 9kt >10km - Few Clouds 900ft
Broken Clouds 1400ft
998 Temporary: YLO ETNW 021020Z 33009KT 9999 FEW009 BKN014 03/00 Q0998 GRN BLU TEMPO YLO
VFR 3°C / 1°C 290º 4kt >10km in the Vicinity Showers Vertical Visibility of 0ft.
Broken Clouds 8000ft
998 Temporary: YLO ETNW 020920Z 29004KT 9999 VCSH SCT014 BKN080 03/01 Q0998 BLU BLU TEMPO YLO
VFR 3°C / 1°C 300º 4kt >10km in the Vicinity Showers Vertical Visibility of 0ft.
Broken Clouds 8000ft
998 Temporary: YLO ETNW 020914Z 30004KT 9999 VCSH SCT014 BKN080 03/01 Q0998 BLU BLU TEMPO YLO
IFR 3°C / 1°C 340º 6kt >10km - Broken Clouds 900ft
Broken Clouds 1600ft
997 Temporary: YLO ETNW 020820Z 34006KT 9999 BKN009 BKN016 03/01 Q0997 GRN BLU TEMPO YLO
MVFR 3°C / 1°C 350º 7kt >10km - Few Clouds 900ft
Broken Clouds 1600ft
996 Temporary: YLO ETNW 020720Z 35007KT 9999 FEW009 BKN016 03/01 Q0996 WHT BLU TEMPO YLO
VFR 3°C / 1°C 300º 9kt >10km - Scattered Clouds 6000ft
Broken Clouds 14000ft
995 Temporary: YLO ETNW 020620Z 30009KT 9999 SCT060 BKN140 03/01 Q0995 BLU BLU TEMPO YLO

VFR

0°C / -2°C

[Víc]
Vítr 270º 13kt
Viditelnost 9000m
Počasí -
Oblaky Few Clouds 300ft
Tlak 1007
Změna -
Nezpracované ETNW 030020Z 27013KT 9000 FEW003 M00/M02 Q1007 BLU+

MVFR

-1°C / -2°C

[Víc]
Vítr 280º 7kt
Viditelnost 7000m
Počasí -
Oblaky Scattered Clouds 300ft
Tlak 1007
Změna -
Nezpracované ETNW 022320Z 28007KT 7000 SCT003 M01/M02 Q1007 WHT

LIFR

-1°C / -1°C

[Víc]
Vítr 280º 9kt
Viditelnost 6000m
Počasí -
Oblaky Broken Clouds 300ft
Tlak 1007
Změna -
Nezpracované ETNW 022250Z 28009KT 6000 BKN003 M01/M01 Q1007 YLO

LIFR

-1°C / -2°C

[Víc]
Vítr 280º 7kt
Viditelnost 6000m
Počasí -
Oblaky Broken Clouds 200ft
Tlak 1007
Změna -
Nezpracované ETNW 022220Z 28007KT 6000 BKN002 M01/M02 Q1007 AMB

LIFR

-1°C / -1°C

[Víc]
Vítr 290º 8kt
Viditelnost 7000m
Počasí -
Oblaky Broken Clouds 200ft
Tlak 1007
Změna -
Nezpracované ETNW 022140Z 29008KT 7000 BKN002 M01/M01 Q1007 AMB

VFR

-1°C / -2°C

[Víc]
Vítr 300º 8kt
Viditelnost 9000m
Počasí -
Oblaky Few Clouds 200ft
Tlak 1007
Změna -
Nezpracované ETNW 022120Z 30008KT 9000 FEW002 M01/M02 Q1007 BLU+

VFR

-1°C / -1°C

[Víc]
Vítr 280º 7kt
Viditelnost 9000m
Počasí -
Oblaky Few Clouds 200ft
Tlak 1006
Změna -
Nezpracované ETNW 022035Z 28007KT 9000 FEW002 M01/M01 Q1006 BLU+FCST CNL

VFR

-1°C / -1°C

[Víc]
Vítr 270º 8kt
Viditelnost 9000m
Počasí -
Oblaky Few Clouds 200ft
Tlak 1006
Změna -
Nezpracované ETNW 022020Z 27008KT 9000 FEW002 M01/M01 Q1006 BLU+BLU+

VFR

-1°C / -2°C

[Víc]
Vítr 270º 6kt
Viditelnost >10km
Počasí -
Oblaky Few Clouds 11000ft
Tlak 1006
Změna -
Nezpracované ETNW 021920Z 27006KT 9999 FEW110 M01/M02 Q1006 BLU+BLU+

VFR

0°C / -2°C

[Víc]
Vítr 310º 8kt
Viditelnost >10km
Počasí -
Oblaky Few Clouds 11000ft
Tlak 1005
Změna -
Nezpracované ETNW 021820Z 31008KT 9999 FEW110 M00/M02 Q1005 BLU+BLU+

VFR

0°C / -3°C

[Víc]
Vítr 320º 7kt
Viditelnost >10km
Počasí -
Oblaky Few Clouds 10000ft
Tlak 1004
Změna -
Nezpracované ETNW 021720Z 32007KT 9999 FEW100 M00/M03 Q1004 BLU+BLU+

VFR

1°C / -3°C

[Víc]
Vítr 350º 6kt
Viditelnost >10km
Počasí -
Oblaky Few Clouds 1700ft
Tlak 1003
Změna -
Nezpracované ETNW 021620Z 35006KT 9999 FEW017 01/M03 Q1003 BLU+BLU+

VFR

2°C / -3°C

[Víc]
Vítr 350º 7kt
Viditelnost >10km
Počasí -
Oblaky Few Clouds 1600ft
Broken Clouds 5500ft
Tlak 1002
Změna -
Nezpracované ETNW 021520Z 35007KT 9999 FEW016 BKN055 02/M03 Q1002 BLU BLU

VFR

2°C / -2°C

[Víc]
Vítr 340º 7kt
Viditelnost >10km
Počasí -
Oblaky Few Clouds 1300ft
Broken Clouds 5000ft
Tlak 1001
Změna -
Nezpracované ETNW 021420Z 34007KT 9999 FEW013 BKN050 02/M02 Q1001 BLU BLU

VFR

4°C / 1°C

[Víc]
Vítr 340º 10kt
Viditelnost >10km
Počasí in the Vicinity Showers
Oblaky Vertical Visibility of 0ft.
Broken Clouds 4000ft
Tlak 1000
Změna -
Nezpracované ETNW 021320Z 34010KT 9999 VCSH FEW010 BKN040 04/01 Q1000 BLU BLU

VFR

4°C / 0°C

[Víc]
Vítr 340º 8kt
Viditelnost >10km
Počasí Light Showers Snow Light Showers Rain 3.00mm precipitation
Oblaky Vertical Visibility of 0ft.
Broken Clouds 6000ft
Tlak 999
Změna -
Nezpracované ETNW 021220Z 34008KT 9999 -SHSNRA SCT010CB BKN060 04/00 Q0999 BLU BLU

VFR

4°C / 1°C

[Víc]
Vítr 310º 8kt
Viditelnost >10km
Počasí -
Oblaky Few Clouds 1000ft
Scattered Clouds 2100ft
Broken Clouds 6000ft
Tlak 999
Změna Temporary: YLO
Nezpracované ETNW 021120Z 31008KT 9999 FEW010 SCT021 BKN060 04/01 Q0999 BLU BLU TEMPO YLO

MVFR

3°C / 1°C

[Víc]
Vítr 320º 7kt
Viditelnost >10km
Počasí -
Oblaky Few Clouds 900ft
Broken Clouds 2100ft
Tlak 999
Změna Temporary: YLO
Nezpracované ETNW 021045Z 32007KT 9999 FEW009 BKN021 03/01 Q0999 WHT BLU TEMPO YLO

MVFR

3°C / 0°C

[Víc]
Vítr 330º 9kt
Viditelnost >10km
Počasí -
Oblaky Few Clouds 900ft
Broken Clouds 1400ft
Tlak 998
Změna Temporary: YLO
Nezpracované ETNW 021020Z 33009KT 9999 FEW009 BKN014 03/00 Q0998 GRN BLU TEMPO YLO

VFR

3°C / 1°C

[Víc]
Vítr 290º 4kt
Viditelnost >10km
Počasí in the Vicinity Showers
Oblaky Vertical Visibility of 0ft.
Broken Clouds 8000ft
Tlak 998
Změna Temporary: YLO
Nezpracované ETNW 020920Z 29004KT 9999 VCSH SCT014 BKN080 03/01 Q0998 BLU BLU TEMPO YLO

VFR

3°C / 1°C

[Víc]
Vítr 300º 4kt
Viditelnost >10km
Počasí in the Vicinity Showers
Oblaky Vertical Visibility of 0ft.
Broken Clouds 8000ft
Tlak 998
Změna Temporary: YLO
Nezpracované ETNW 020914Z 30004KT 9999 VCSH SCT014 BKN080 03/01 Q0998 BLU BLU TEMPO YLO

IFR

3°C / 1°C

[Víc]
Vítr 340º 6kt
Viditelnost >10km
Počasí -
Oblaky Broken Clouds 900ft
Broken Clouds 1600ft
Tlak 997
Změna Temporary: YLO
Nezpracované ETNW 020820Z 34006KT 9999 BKN009 BKN016 03/01 Q0997 GRN BLU TEMPO YLO

MVFR

3°C / 1°C

[Víc]
Vítr 350º 7kt
Viditelnost >10km
Počasí -
Oblaky Few Clouds 900ft
Broken Clouds 1600ft
Tlak 996
Změna Temporary: YLO
Nezpracované ETNW 020720Z 35007KT 9999 FEW009 BKN016 03/01 Q0996 WHT BLU TEMPO YLO

VFR

3°C / 1°C

[Víc]
Vítr 300º 9kt
Viditelnost >10km
Počasí -
Oblaky Scattered Clouds 6000ft
Broken Clouds 14000ft
Tlak 995
Změna Temporary: YLO
Nezpracované ETNW 020620Z 30009KT 9999 SCT060 BKN140 03/01 Q0995 BLU BLU TEMPO YLO

TAF pro Bordenau (ETNW)

From till


From till Wind 270º 8kt. Visibility 8000m. Few Clouds 500ft. Scattered Clouds 6000ft.
Temporarly from till Wind 260º 5kt. Visibility 4000m. Mist . Broken Clouds 400ft. Broken Clouds 3000ft.
Temporarly from till Wind 220º 15kt. Gust 25kt. Visibility 3000m. Rain Snow . Broken Clouds 1000ft. Broken Clouds 20000ft.

Nezpracované: TAF ETNW 022300Z 0300/0324 27008KT 8000 NSW FEW005 SCT060 TEMPO 0300/0305 26005KT 4000 BR BKN004 BKN030 TEMPO 0315/0324 22015G25KT 3000 RASN BKN010 BKN200 BY ETGL

rainNOW: Předpověď deště pro Bordenau a okolí (v okruhu 25 km)

0.0 mm
0.0 mm
0.0 mm
0.0 mm
0.0 mm
0.0 mm
0.0 mm
0.0 mm
0.0 mm
0.0 mm
0.0 mm
0.0 mm

Radar pro Bordenau

Mrholení
Slabé
Střední
Silné
Velmi silné
Kroupy

Značka lokality je umístněna na Bordenau. Tato animace ukazuje srážky zaznamenané radarem za poslední hodinu a také 2h předpověď. Mrholení nebo slabé sněžení může být pro radar neviditelné. Intenzita srážek je barevně označena od světle modré po oranžovou.
Copyright 2021 Deutscher Wetterdienst / meteoblue.

Aktuální snímky ze satelitu a srážky pro Bordenau, Německo

Značka polohy je umístěna na Bordenau. [Víc]

Satelitní snímek v reálném čase kombinuje viditelné světlo během dne s infračerveným zářením během noci. V noci není obraz tmavý, protože infračervené záření dokáže detekovat teplotní rozdíly. Nízká oblačnost a mlha se bohužel těžko odlišují od pozemních teplot, a proto mohou být během noci téměř neviditelné. Satelitní snímky z Meteosatu pro Evropu jsou aktualizovány v reálném čase každých 5 minut. Snímky z GOES-16/GOES-17 (Severní a Jižní Amerika) a Himawari (Asie) jsou aktualizovány) každých 10 minut.

Srážky jsou odhadované na základě radaru a satelitů. V noci jsou odhady srážek ze satelitů méně přesné než během dne. Oranžové křížky označují místa, kde byl zaznamenán blesk (za Evropa).

Copyright 2021 EUMETSAT / meteoblue. Údaje o blescích poskytuje nowcast.